Time;durP1;ratioP1;P1;durP2;ratioP2;P2;SDS_P1;SDS_P2;PMS_P1;PMS_P2;Temp;Humidity;BMP_temperature;BMP_pressure;BME280_temperature;BME280_humidity;BME280_pressure;Samples;Min_cycle;Max_cycle;Signal;HPM_P1;HPM_P2
2022/09/08 00:01:16;;;;;;;11.88;9.48;;;16.70;99.90;;;-144.05;84.52;125687.94;5001841;28;20050;-89
2022/09/08 00:03:43;;;;;;;14.15;10.38;;;16.60;99.90;;;-144.05;84.48;125687.94;5021834;28;20389;-88
2022/09/08 00:06:16;;;;;;;12.23;9.23;;;16.70;99.90;;;-144.05;84.38;125687.94;5005931;28;20479;-88
2022/09/08 00:08:45;;;;;;;12.00;9.60;;;16.70;99.90;;;-144.05;84.67;125687.94;5005863;28;20034;-89
2022/09/08 00:11:17;;;;;;;13.48;10.32;;;16.60;99.90;;;-144.05;84.44;125687.94;5026700;28;20082;-89
2022/09/08 00:13:45;;;;;;;12.40;10.82;;;16.60;99.90;;;-144.05;84.40;125687.94;5017047;28;20037;-89
2022/09/08 00:16:12;;;;;;;15.15;10.65;;;16.60;99.90;;;-144.05;84.31;125687.94;5017592;28;20026;-88
2022/09/08 00:18:41;;;;;;;11.77;9.13;;;16.60;99.90;;;-144.05;84.42;125687.94;5033489;28;20046;-88
2022/09/08 00:21:08;;;;;;;14.13;10.88;;;16.60;99.90;;;-144.05;84.72;125687.94;5035812;28;20036;-89
2022/09/08 00:23:34;;;;;;;16.40;11.90;;;16.50;99.90;;;-144.05;84.69;125687.94;5035660;28;20119;-88
2022/09/08 00:26:03;;;;;;;10.27;8.55;;;16.60;99.90;;;-144.05;84.56;125687.94;5028715;28;20030;-88
2022/09/08 00:28:30;;;;;;;10.18;8.32;;;16.60;99.90;;;-144.05;84.39;125687.94;5021296;28;20397;-87
2022/09/08 00:30:56;;;;;;;16.58;10.90;;;16.50;99.90;;;-144.05;84.71;125687.94;5021049;28;20037;-88
2022/09/08 00:33:23;;;;;;;11.43;9.25;;;16.50;99.90;;;-144.05;84.79;125687.94;5020739;28;20027;-87
2022/09/08 00:35:51;;;;;;;11.57;9.48;;;16.50;99.90;;;-144.05;85.01;125687.94;5003290;28;20038;-87
2022/09/08 00:38:19;;;;;;;11.95;9.98;;;16.50;99.90;;;-144.05;84.99;125687.94;5020253;28;20058;-88
2022/09/08 00:40:49;;;;;;;9.65;8.20;;;16.50;99.90;;;-144.05;84.79;125687.94;5003366;28;20030;-87
2022/09/08 00:43:39;;;;;;;14.63;9.38;;;16.40;99.90;;;-144.05;85.17;125687.94;5020001;28;20022;-88
2022/09/08 00:46:12;;;;;;;10.70;9.38;;;16.40;99.90;;;-144.05;85.27;125687.94;5019367;28;20058;-87
2022/09/08 00:49:10;;;;;;;9.55;8.13;;;16.40;99.90;;;-144.05;85.29;125687.94;5003449;28;20323;-87
2022/09/08 00:51:43;;;;;;;10.80;7.85;;;16.40;99.90;;;-144.05;85.16;125687.94;5019581;28;20034;-87
2022/09/08 00:54:17;;;;;;;10.02;8.50;;;16.30;99.90;;;-144.05;85.42;125687.94;5020628;28;20463;-86
2022/09/08 00:56:48;;;;;;;13.13;10.57;;;16.30;99.90;;;-144.05;85.54;125687.94;5020820;28;20050;-87
2022/09/08 00:59:20;;;;;;;13.65;10.52;;;16.30;99.90;;;-144.05;85.39;125687.94;5004154;28;20031;-86
2022/09/08 01:01:46;;;;;;;12.95;10.40;;;16.40;99.90;;;-144.05;85.62;125687.94;5004967;28;20092;-85
2022/09/08 01:04:13;;;;;;;12.25;9.88;;;16.40;99.90;;;-144.05;85.37;125687.94;5020373;28;20069;-87
2022/09/08 01:13:47;;;;;;;11.93;10.50;;;16.60;99.90;;;-144.05;85.18;125687.94;5011418;28;20045;-88
2022/09/08 01:16:13;;;;;;;11.90;10.05;;;16.70;99.90;;;-144.05;84.97;125687.94;5004101;28;20031;-88
2022/09/08 01:18:39;;;;;;;12.48;10.93;;;16.70;99.90;;;-144.05;84.99;125687.94;5020285;28;20038;-88
2022/09/08 01:22:03;;;;;;;9.40;8.15;;;16.80;99.90;;;-144.05;84.89;125687.94;5020490;28;20037;-89
2022/09/08 01:24:52;;;;;;;11.48;9.73;;;16.80;99.90;;;-144.05;84.70;125687.94;5004808;28;20037;-89
2022/09/08 01:27:21;;;;;;;10.07;9.05;;;16.80;99.90;;;-144.05;84.74;125687.94;5026428;28;20041;-88
2022/09/08 01:30:06;;;;;;;12.30;9.85;;;16.80;99.90;;;-144.05;84.91;125687.94;5018972;28;20064;-87
2022/09/08 01:32:40;;;;;;;14.45;12.00;;;16.90;99.90;;;-144.05;84.86;125687.94;5018922;28;20030;-88
2022/09/08 01:35:07;;;;;;;17.60;10.55;;;16.90;99.90;;;-144.05;84.28;125687.94;5001410;28;20050;-87
2022/09/08 01:37:33;;;;;;;8.95;8.07;;;17.00;99.90;;;-144.05;83.86;125687.94;5001918;28;20065;-87
2022/09/08 01:39:59;;;;;;;9.55;8.23;;;17.00;99.90;;;-144.05;83.89;125687.94;5018380;28;20118;-87
2022/09/08 01:42:25;;;;;;;10.10;9.02;;;17.00;99.90;;;-144.05;83.66;125687.94;5001000;28;20035;-88
2022/09/08 01:44:51;;;;;;;9.80;8.52;;;17.00;99.90;;;-144.05;83.67;125687.94;5001001;28;20034;-86
2022/09/08 01:47:17;;;;;;;13.00;8.38;;;17.10;99.90;;;-144.05;83.31;125687.94;5017937;28;20030;-86
2022/09/08 01:49:43;;;;;;;9.27;8.30;;;17.00;99.90;;;-144.05;83.19;125687.94;5017866;28;20034;-90
2022/09/08 01:52:09;;;;;;;9.88;8.02;;;17.00;99.90;;;-144.05;82.96;125687.94;5002509;28;20382;-87
2022/09/08 01:54:35;;;;;;;10.40;7.85;;;16.90;99.90;;;-144.05;83.03;125687.94;5018238;28;20022;-86
2022/09/08 01:57:01;;;;;;;9.25;8.35;;;16.90;99.90;;;-144.05;83.34;125687.94;5001487;28;20485;-88
2022/09/08 01:59:27;;;;;;;8.30;7.22;;;16.90;99.90;;;-144.05;83.27;125687.94;5018584;28;20026;-89
2022/09/08 02:01:54;;;;;;;9.65;8.27;;;16.90;99.90;;;-144.05;83.57;125687.94;5002602;28;20077;-90
2022/09/08 02:04:20;;;;;;;15.05;8.88;;;16.90;99.90;;;-144.05;83.51;125687.94;5018638;28;20030;-87
2022/09/08 02:06:46;;;;;;;15.50;8.70;;;16.90;99.90;;;-144.05;83.53;125687.94;5017723;28;20113;-89
2022/09/08 02:09:13;;;;;;;10.98;8.25;;;16.90;99.90;;;-144.05;83.56;125687.94;5017091;28;20101;-89
2022/09/08 02:11:39;;;;;;;10.55;7.55;;;17.00;99.90;;;-144.05;82.90;125687.94;5016709;28;20030;-88
2022/09/08 02:14:05;;;;;;;11.10;7.85;;;17.00;99.90;;;-144.05;82.54;125687.94;5018763;28;20152;-89
2022/09/08 02:16:33;;;;;;;7.97;7.18;;;17.10;99.90;;;-144.05;81.96;125687.94;5017179;28;20098;-88
2022/09/08 02:18:58;;;;;;;10.38;7.68;;;17.10;99.90;;;-144.05;81.56;125687.94;5016926;28;20490;-87
2022/09/08 02:21:27;;;;;;;8.07;6.82;;;17.20;99.90;;;-144.05;81.31;125687.94;5000841;28;20038;-87
2022/09/08 02:23:54;;;;;;;10.32;7.38;;;17.20;99.90;;;-144.05;80.94;125687.94;5017514;28;20063;-89
2022/09/08 02:26:28;;;;;;;11.77;6.88;;;17.20;99.90;;;-144.05;80.87;125687.94;5000284;28;20030;-87
2022/09/08 02:28:55;;;;;;;8.25;6.93;;;17.20;99.90;;;-144.05;80.57;125687.94;5017114;28;20034;-88
2022/09/08 02:31:26;;;;;;;9.15;6.50;;;17.20;99.90;;;-144.05;80.64;125687.94;5016893;28;20037;-88
2022/09/08 02:33:53;;;;;;;8.43;6.75;;;17.20;99.90;;;-144.05;80.17;125687.94;5018072;28;20074;-88
2022/09/08 02:36:19;;;;;;;6.63;6.00;;;17.20;99.90;;;-144.05;79.83;125687.94;5016687;28;20045;-87
2022/09/08 02:38:52;;;;;;;8.32;6.72;;;17.30;99.90;;;-144.05;79.64;125687.94;5016568;28;20030;-89
2022/09/08 02:41:24;;;;;;;7.93;7.13;;;17.30;99.90;;;-144.05;79.78;125687.94;5016723;28;20041;-87
2022/09/08 02:43:51;;;;;;;8.32;6.55;;;17.20;99.90;;;-144.05;79.40;125687.94;5016260;28;20060;-88
2022/09/08 02:46:19;;;;;;;7.78;6.15;;;17.30;99.90;;;-144.05;78.91;125687.94;4999781;28;20030;-86
2022/09/08 02:48:45;;;;;;;7.43;6.03;;;17.30;99.90;;;-144.05;78.15;125687.94;5000839;28;20030;-87
2022/09/08 02:51:14;;;;;;;9.38;6.03;;;17.40;99.90;;;-144.05;77.95;125687.94;5017463;28;20035;-86
2022/09/08 02:53:41;;;;;;;7.45;6.40;;;17.40;99.90;;;-144.05;77.80;125687.94;5017484;28;20429;-87
2022/09/08 02:56:09;;;;;;;8.73;6.50;;;17.40;99.90;;;-144.05;77.75;125687.94;5018032;28;20030;-86
2022/09/08 02:58:37;;;;;;;9.18;6.60;;;17.40;99.90;;;-144.05;77.88;125687.94;5001522;28;20037;-86
2022/09/08 03:01:07;;;;;;;8.38;6.57;;;17.40;99.90;;;-144.05;77.85;125687.94;5018614;28;20391;-87
2022/09/08 03:03:33;;;;;;;7.03;5.53;;;17.40;99.90;;;-144.05;77.93;125687.94;5020499;28;20022;-85
2022/09/08 03:05:59;;;;;;;11.98;5.93;;;17.40;99.90;;;-144.05;77.34;125687.94;5004126;28;20053;-88
2022/09/08 03:08:27;;;;;;;7.53;4.70;;;17.40;99.90;;;-144.05;76.77;125687.94;5014897;28;20049;-86
2022/09/08 03:10:53;;;;;;;6.85;4.45;;;17.50;99.90;;;-144.05;75.73;125687.94;5015021;28;20022;-87
2022/09/08 03:13:19;;;;;;;4.95;4.45;;;17.60;99.90;;;-144.05;75.44;125687.94;4999168;28;20026;-87
2022/09/08 03:15:46;;;;;;;8.18;4.07;;;17.60;99.90;;;-144.05;74.75;125687.94;5016140;28;20026;-89
2022/09/08 03:18:12;;;;;;;10.05;5.43;;;17.60;99.90;;;-144.05;75.77;125687.94;5016897;28;20089;-86
2022/09/08 03:20:41;;;;;;;6.80;5.72;;;17.70;99.90;;;-144.05;76.21;125687.94;5016773;28;20389;-89
2022/09/08 03:23:16;;;;;;;6.80;5.65;;;17.60;99.90;;;-144.05;76.99;125687.94;5001254;28;20037;-87
2022/09/08 03:25:47;;;;;;;6.43;5.43;;;17.60;99.90;;;-144.05;77.00;125687.94;4999731;28;20422;-89
2022/09/08 03:28:24;;;;;;;5.40;4.13;;;17.50;99.90;;;-144.05;75.72;125687.94;5015917;28;20124;-88
2022/09/08 03:30:51;;;;;;;5.68;3.72;;;17.50;99.90;;;-144.05;74.83;125687.94;5000561;28;20040;-90
2022/09/08 03:33:17;;;;;;;6.35;4.28;;;17.60;99.90;;;-144.05;74.33;125687.94;5019251;28;20030;-90
2022/09/08 03:35:46;;;;;;;6.28;4.07;;;17.70;99.90;;;-144.05;73.97;125687.94;5022298;28;20058;-89
2022/09/08 03:38:17;;;;;;;5.15;3.65;;;17.60;99.90;;;-144.05;73.33;125687.94;5005890;28;20065;-86
2022/09/08 03:40:44;;;;;;;5.53;3.58;;;17.70;99.90;;;-144.05;73.36;125687.94;5002720;28;20027;-87
2022/09/08 03:43:11;;;;;;;5.35;3.78;;;17.80;99.90;;;-144.05;73.35;125687.94;5020886;28;20431;-88
2022/09/08 03:45:45;;;;;;;4.63;4.13;;;17.80;99.90;;;-144.05;73.17;125687.94;5022186;28;20027;-87
2022/09/08 03:48:14;;;;;;;6.22;3.85;;;17.80;99.90;;;-144.05;73.97;125687.94;5021347;28;20113;-87
2022/09/08 03:50:42;;;;;;;4.95;3.72;;;17.80;99.90;;;-144.05;74.20;125687.94;5020827;28;20065;-90
2022/09/08 03:53:10;;;;;;;5.47;4.25;;;17.70;99.90;;;-144.05;74.88;125687.94;5004921;28;20049;-87
2022/09/08 03:55:42;;;;;;;6.22;4.20;;;17.70;99.90;;;-144.05;75.31;125687.94;5021291;28;20037;-88
2022/09/08 03:58:10;;;;;;;7.32;4.25;;;17.60;99.90;;;-144.05;75.61;125687.94;5021379;28;20078;-87
2022/09/08 04:00:38;;;;;;;3.95;3.30;;;17.50;99.90;;;-144.05;75.35;125687.94;5023067;28;20078;-88
2022/09/08 04:03:05;;;;;;;4.70;3.60;;;17.50;99.90;;;-144.05;75.46;125687.94;5007278;28;20050;-90
2022/09/08 04:05:31;;;;;;;5.82;4.15;;;17.50;99.90;;;-144.05;75.80;125687.94;5021921;28;20045;-89
2022/09/08 04:07:57;;;;;;;5.10;3.58;;;17.50;99.90;;;-144.05;75.57;125687.94;5022311;28;20189;-87
2022/09/08 04:10:23;;;;;;;5.50;3.55;;;17.50;99.90;;;-144.05;74.83;125687.94;5021565;28;20053;-91
2022/09/08 04:12:50;;;;;;;6.93;3.75;;;17.40;99.90;;;-144.05;74.10;125687.94;5021895;28;20041;-89
2022/09/08 04:15:17;;;;;;;4.97;3.20;;;17.50;99.90;;;-144.05;73.77;125687.94;5021524;28;20054;-89
2022/09/08 04:17:44;;;;;;;4.50;3.25;;;17.50;99.90;;;-144.05;74.00;125687.94;5017879;28;20039;-90
2022/09/08 04:20:10;;;;;;;4.15;3.47;;;17.50;99.90;;;-144.05;74.01;125687.94;5017427;28;20442;-89
2022/09/08 04:22:36;;;;;;;4.93;3.40;;;17.50;99.90;;;-144.05;74.26;125687.94;5018470;28;20555;-91
2022/09/08 04:25:02;;;;;;;3.85;3.33;;;17.50;99.90;;;-144.05;74.42;125687.94;5002370;28;20054;-88
2022/09/08 04:27:28;;;;;;;9.05;3.35;;;17.50;99.90;;;-144.05;73.80;125687.94;5027498;28;20477;-87
2022/09/08 04:29:54;;;;;;;8.65;3.60;;;17.60;99.90;;;-144.05;73.69;125687.94;5010490;28;20066;-86
2022/09/08 04:32:20;;;;;;;5.32;3.30;;;17.70;99.90;;;-144.05;73.02;125687.94;5008501;28;20035;-90
2022/09/08 04:34:50;;;;;;;5.82;3.10;;;17.80;99.90;;;-144.05;72.76;125687.94;4999082;28;20026;-87
2022/09/08 04:37:18;;;;;;;4.95;3.08;;;17.80;99.90;;;-144.05;73.34;125687.94;5014984;28;20121;-88
2022/09/08 04:39:44;;;;;;;5.40;3.25;;;17.90;99.90;;;-144.05;75.96;125687.94;5015372;28;20484;-89
2022/09/08 04:42:10;;;;;;;5.50;2.67;;;17.80;99.90;;;-144.05;77.16;125687.94;5014579;28;20098;-89
2022/09/08 04:44:36;;;;;;;4.55;3.25;;;17.70;99.90;;;-144.05;79.42;125687.94;4998943;28;20045;-85
2022/09/08 04:47:02;;;;;;;4.80;3.33;;;17.40;99.90;;;-144.05;80.89;125687.94;5014370;28;20037;-89
2022/09/08 04:49:28;;;;;;;5.35;3.70;;;17.20;99.90;;;-144.05;82.32;125687.94;4999546;28;20030;-88
2022/09/08 04:51:54;;;;;;;6.10;3.67;;;17.10;99.90;;;-144.05;84.23;125687.94;4998360;28;20081;-87
2022/09/08 04:54:22;;;;;;;4.13;3.65;;;16.90;99.90;;;-144.05;84.36;125687.94;4996916;28;20033;-84
2022/09/08 04:56:49;;;;;;;10.02;4.03;;;16.80;99.90;;;-144.05;84.86;125687.94;5017096;28;20026;-90
2022/09/08 04:59:16;;;;;;;7.70;4.70;;;16.80;99.90;;;-144.05;86.43;125687.94;5013992;28;20041;-87
2022/09/08 05:01:42;;;;;;;6.90;4.00;;;16.70;99.90;;;-144.05;86.79;125687.94;5016046;28;20030;-86
2022/09/08 05:04:09;;;;;;;6.55;3.78;;;16.50;99.90;;;-144.05;87.37;125687.94;4998284;28;20177;-90
2022/09/08 05:06:35;;;;;;;5.22;4.32;;;16.50;99.90;;;-144.05;87.83;125687.94;5014760;28;20114;-88
2022/09/08 05:09:04;;;;;;;5.55;4.20;;;16.50;99.90;;;-144.05;88.29;125687.94;5014986;28;20584;-91
2022/09/08 05:11:33;;;;;;;5.15;3.72;;;16.40;99.90;;;-144.05;88.48;125687.94;5016460;28;20041;-88
2022/09/08 05:13:59;;;;;;;7.40;3.83;;;16.40;99.90;;;-144.05;88.45;125687.94;5016761;28;20026;-88
2022/09/08 05:16:29;;;;;;;8.70;4.75;;;16.30;99.90;;;-144.05;89.26;125687.94;5016695;28;20037;-89
2022/09/08 05:19:01;;;;;;;5.75;3.53;;;16.30;99.90;;;-144.05;89.15;125687.94;5000332;28;20034;-90
2022/09/08 05:21:32;;;;;;;6.20;3.92;;;16.30;99.90;;;-144.05;89.03;125687.94;5018074;28;20041;-88
2022/09/08 05:24:00;;;;;;;7.22;4.15;;;16.30;99.90;;;-144.05;89.20;125687.94;5001184;28;20041;-89
2022/09/08 05:26:28;;;;;;;7.30;4.20;;;16.20;99.90;;;-144.05;89.21;125687.94;5000157;28;20030;-88
2022/09/08 05:28:54;;;;;;;8.05;4.07;;;16.30;99.90;;;-144.05;89.06;125687.94;5016791;28;20161;-88
2022/09/08 05:31:26;;;;;;;5.63;3.83;;;16.30;99.90;;;-144.05;88.90;125687.94;5000587;28;20049;-88
2022/09/08 05:33:57;;;;;;;6.63;3.55;;;16.30;99.90;;;-144.05;89.26;125687.94;5001250;28;20145;-90
2022/09/08 05:36:34;;;;;;;6.28;4.07;;;16.40;99.90;;;-144.05;89.43;125687.94;5000959;28;20030;-90
2022/09/08 05:39:04;;;;;;;5.05;3.33;;;16.30;99.90;;;-144.05;89.48;125687.94;5008214;28;20030;-85
2022/09/08 05:41:44;;;;;;;8.23;4.05;;;16.30;99.90;;;-144.05;89.57;125687.94;5134252;27;20399;-89
2022/09/08 05:44:14;;;;;;;6.55;3.85;;;16.20;99.90;;;-144.05;89.70;125687.94;5128714;28;20036;-86
2022/09/08 05:46:40;;;;;;;9.77;3.92;;;16.20;99.90;;;-144.05;90.45;125687.94;5112169;28;20100;-89
2022/09/08 05:49:07;;;;;;;8.98;4.00;;;16.20;99.90;;;-144.05;90.54;125687.94;5073508;28;20523;-88
2022/09/08 05:51:33;;;;;;;9.55;3.58;;;16.20;99.90;;;-144.05;90.38;125687.94;5074497;28;20046;-88
2022/09/08 05:54:00;;;;;;;8.30;3.42;;;16.20;99.90;;;-144.05;90.48;125687.94;5076844;28;20504;-89
2022/09/08 05:56:27;;;;;;;5.93;3.47;;;16.20;99.90;;;-144.05;90.77;125687.94;5074641;28;20056;-89
2022/09/08 05:58:57;;;;;;;6.55;3.90;;;16.20;99.90;;;-144.05;90.71;125687.94;5075362;28;20033;-89
2022/09/08 06:01:34;;;;;;;6.05;3.70;;;16.20;99.90;;;-144.05;90.67;125687.94;5073675;28;20025;-90
2022/09/08 06:04:02;;;;;;;7.70;3.80;;;16.20;99.90;;;-144.05;90.84;125687.94;5073796;28;20059;-87
2022/09/08 06:06:31;;;;;;;6.10;3.40;;;16.20;99.90;;;-144.05;91.05;125687.94;5076601;28;20021;-89
2022/09/08 06:08:59;;;;;;;6.45;3.35;;;16.20;99.90;;;-144.05;91.32;125687.94;5073528;28;20024;-87
2022/09/08 06:11:26;;;;;;;5.82;3.70;;;16.20;99.90;;;-144.05;91.70;125687.94;5073780;28;20438;-91
2022/09/08 06:13:53;;;;;;;6.20;3.15;;;16.20;99.90;;;-144.05;91.85;125687.94;5080516;28;20028;-88
2022/09/08 06:16:19;;;;;;;4.35;3.00;;;16.30;99.90;;;-144.05;91.63;125687.94;5111890;28;20043;-89
2022/09/08 06:18:47;;;;;;;6.28;3.17;;;16.30;99.90;;;-144.05;91.32;125687.94;5093708;28;20039;-88
2022/09/08 06:21:23;;;;;;;5.72;3.30;;;16.30;99.90;;;-144.05;91.24;125687.94;5094806;28;20029;-89
2022/09/08 06:23:53;;;;;;;5.65;3.33;;;16.30;99.90;;;-144.05;90.81;125687.94;5094809;28;20102;-88
2022/09/08 06:27:00;;;;;;;6.88;3.30;;;16.30;99.90;;;-144.05;90.94;125687.94;5094231;28;20056;-89
2022/09/08 06:30:03;;;;;;;6.97;3.42;;;16.30;99.90;;;-144.05;90.62;125687.94;5094458;28;20028;-87
2022/09/08 06:32:57;;;;;;;7.22;3.53;;;16.30;99.90;;;-144.05;91.20;125687.94;5095088;28;20025;-89
2022/09/08 06:35:48;;;;;;;9.15;4.07;;;16.30;99.90;;;-144.05;90.82;125687.94;5093869;28;20016;-87
2022/09/08 06:38:47;;;;;;;6.05;3.88;;;16.30;99.90;;;-144.05;91.07;125687.94;5092126;28;20031;-87
2022/09/08 06:41:25;;;;;;;5.50;3.85;;;16.30;99.90;;;-144.05;90.65;125687.94;5092669;28;20067;-87
2022/09/08 06:44:11;;;;;;;7.75;3.70;;;16.30;99.90;;;-144.05;90.67;125687.94;5091700;28;20021;-87
2022/09/08 06:46:41;;;;;;;7.47;4.23;;;16.30;99.90;;;-144.05;90.66;125687.94;5127347;28;20044;-87
2022/09/08 06:49:09;;;;;;;6.18;3.53;;;16.40;99.90;;;-144.05;90.67;125687.94;5098355;28;20100;-85
2022/09/08 06:52:34;;;;;;;10.35;4.53;;;16.40;99.90;;;-144.05;90.77;125687.94;5091815;28;20042;-89
2022/09/08 06:55:43;;;;;;;6.88;4.13;;;16.40;99.90;;;-144.05;91.17;125687.94;5085284;28;20457;-89
2022/09/08 06:58:31;;;;;;;8.95;4.30;;;16.40;99.90;;;-144.05;90.93;125687.94;5091657;28;20052;-86
2022/09/08 07:01:16;;;;;;;5.60;4.10;;;16.40;99.90;;;-144.05;90.75;125687.94;5091514;28;20043;-87
2022/09/08 07:04:20;;;;;;;7.00;4.47;;;16.40;99.90;;;-144.05;90.75;125687.94;5094317;28;20020;-87
2022/09/08 07:07:37;;;;;;;7.18;4.50;;;16.40;99.90;;;-144.05;90.56;125687.94;5094753;28;20024;-86
2022/09/08 07:10:42;;;;;;;6.72;4.47;;;16.50;99.90;;;-144.05;90.47;125687.94;5080511;28;20056;-85
2022/09/08 07:13:59;;;;;;;7.30;4.45;;;16.50;99.90;;;-144.05;90.44;125687.94;5079037;28;20032;-87
2022/09/08 07:16:49;;;;;;;7.72;5.00;;;16.50;99.90;;;-144.05;90.29;125687.94;5038711;28;20029;-86
2022/09/08 07:19:48;;;;;;;9.40;5.05;;;16.50;99.90;;;-144.05;90.37;125687.94;5037429;28;20037;-86
2022/09/08 07:22:32;;;;;;;7.00;4.55;;;16.60;99.90;;;-144.05;90.41;125687.94;5038375;28;20030;-88
2022/09/08 07:25:32;;;;;;;7.70;4.28;;;16.60;99.90;;;-144.05;90.27;125687.94;5055115;28;20032;-87
2022/09/08 07:28:37;;;;;;;5.72;4.13;;;16.60;99.90;;;-144.05;90.20;125687.94;5038845;28;20025;-87
2022/09/08 07:31:13;;;;;;;7.70;4.38;;;16.60;99.90;;;-144.05;90.23;125687.94;5037887;28;20022;-88
2022/09/08 07:33:46;;;;;;;5.80;4.25;;;16.60;99.90;;;-144.05;90.05;125687.94;5038677;28;20044;-89
2022/09/08 07:36:47;;;;;;;5.97;4.00;;;16.70;99.90;;;-144.05;90.17;125687.94;5040482;28;20032;-88
2022/09/08 07:39:38;;;;;;;11.20;5.03;;;16.70;99.90;;;-144.05;90.15;125687.94;5039296;28;20025;-89
2022/09/08 07:42:14;;;;;;;8.35;4.03;;;16.70;99.90;;;-144.05;90.39;125687.94;5055627;28;20482;-91
2022/09/08 07:44:40;;;;;;;6.15;4.13;;;16.80;99.90;;;-144.05;90.35;125687.94;5040655;28;20359;-89
2022/09/08 07:47:51;;;;;;;6.65;4.50;;;16.80;99.90;;;-144.05;90.32;125687.94;5040474;28;20036;-88
2022/09/08 07:53:42;;;;;;;8.30;5.07;;;16.80;99.90;;;-144.05;90.50;125687.94;5044666;28;20060;-89
2022/09/08 07:57:01;;;;;;;10.20;6.22;;;16.80;99.90;;;-144.05;90.93;125687.94;5061116;28;20034;-89
2022/09/08 07:59:38;;;;;;;10.63;6.03;;;16.90;99.90;;;-144.05;90.62;125687.94;5036608;28;20061;-86
2022/09/08 08:02:49;;;;;;;9.52;5.68;;;16.80;99.90;;;-144.05;90.69;125687.94;5055383;28;20116;-89
2022/09/08 08:05:32;;;;;;;9.02;5.68;;;16.90;99.90;;;-144.05;90.33;125687.94;5019763;28;20043;-86
2022/09/08 08:08:24;;;;;;;10.60;6.00;;;16.90;99.90;;;-144.05;90.67;125687.94;5039386;28;20036;-88
2022/09/08 08:11:00;;;;;;;11.63;4.88;;;17.00;99.90;;;-144.05;90.53;125687.94;5040981;28;20056;-87
2022/09/08 08:14:01;;;;;;;9.85;5.32;;;17.00;99.90;;;-144.05;90.17;125687.94;5060122;28;20052;-87
2022/09/08 08:17:31;;;;;;;8.18;5.10;;;17.10;99.90;;;-144.05;90.25;125687.94;5094758;28;20042;-88
2022/09/08 08:20:28;;;;;;;7.15;5.22;;;17.20;99.90;;;-144.05;89.70;125687.94;5077306;28;20062;-88
2022/09/08 08:23:27;;;;;;;;;;;17.20;99.90;;;-144.05;89.49;125687.94;5078696;28;20080;-87
2022/09/08 08:27:02;;;;;;;5.93;4.55;;;17.20;99.90;;;-144.05;89.72;125687.94;5081498;28;20179;-88
2022/09/08 08:30:22;;;;;;;5.78;4.68;;;17.20;99.90;;;-144.05;89.86;125687.94;5003393;28;20036;-87
2022/09/08 08:33:08;;;;;;;5.53;4.45;;;17.20;99.90;;;-144.05;89.47;125687.94;5074043;28;20036;-87
2022/09/08 08:36:06;;;;;;;;;;;17.10;99.90;;;-144.05;88.48;125687.94;5089805;28;20024;-86
2022/09/08 08:38:45;;;;;;;6.72;5.32;;;16.90;99.90;;;-144.05;87.75;125687.94;5084195;28;19921;-85
2022/09/08 08:41:46;;;;;;;6.65;5.18;;;16.80;99.90;;;-144.05;88.53;125687.94;5091620;28;20020;-85
2022/09/08 08:45:08;;;;;;;5.03;4.47;;;16.70;99.90;;;-144.05;87.82;125687.94;5106876;28;20103;-87
2022/09/08 08:48:49;;;;;;;7.70;5.53;;;16.60;99.90;;;-144.05;87.75;125687.94;5085398;28;20028;-86
2022/09/08 08:52:31;;;;;;;7.57;5.82;;;16.60;99.90;;;-144.05;87.89;125687.94;5092362;28;20036;-86
2022/09/08 08:56:08;;;;;;;9.05;5.95;;;16.60;99.90;;;-144.05;88.09;125687.94;5075886;28;20020;-87
2022/09/08 08:59:33;;;;;;;8.52;6.05;;;16.70;99.90;;;-144.05;87.48;125687.94;5092094;28;20045;-87
2022/09/08 09:02:15;;;;;;;6.70;5.38;;;16.70;99.90;;;-144.05;87.63;125687.94;5078973;28;20036;-85
2022/09/08 09:05:32;;;;;;;11.57;5.35;;;16.80;99.90;;;-144.05;87.47;125687.94;5076892;28;20077;-88
2022/09/08 09:08:53;;;;;;;10.18;5.97;;;16.80;99.90;;;-144.05;87.51;125687.94;5075805;28;20086;-88
2022/09/08 09:12:07;;;;;;;12.27;6.35;;;16.80;99.90;;;-144.05;87.62;125687.94;5076839;28;20488;-86
2022/09/08 09:15:33;;;;;;;9.73;6.70;;;16.90;99.90;;;-144.05;86.99;125687.94;5077035;28;20040;-87
2022/09/08 09:18:41;;;;;;;9.93;6.82;;;17.10;99.90;;;-144.05;85.74;125687.94;5036935;28;20032;-87
2022/09/08 09:21:21;;;;;;;;;;;17.20;99.90;;;-144.05;86.44;125687.94;5077216;28;20082;-86
2022/09/08 09:24:23;;;;;;;12.98;7.20;;;17.30;99.90;;;-144.05;85.15;125687.94;5077287;28;19913;-88
2022/09/08 09:26:56;;;;;;;10.10;6.75;;;17.30;99.90;;;-144.05;85.34;125687.94;5076205;28;20040;-86
2022/09/08 09:29:26;;;;;;;10.38;6.22;;;17.30;99.90;;;-144.05;85.20;125687.94;5078096;28;20036;-90
2022/09/08 09:32:25;;;;;;;7.68;6.45;;;17.30;99.90;;;-144.05;84.71;125687.94;5076656;28;20511;-88
2022/09/08 09:35:21;;;;;;;8.35;6.00;;;17.50;99.90;;;-144.05;84.46;125687.94;5076635;28;20131;-87
2022/09/08 09:38:22;;;;;;;12.35;6.60;;;17.50;99.90;;;-144.05;83.81;125687.94;5075915;28;20097;-88
2022/09/08 09:41:56;;;;;;;11.60;6.78;;;17.70;99.90;;;-144.05;84.03;125687.94;5077848;28;20132;-89
2022/09/08 09:44:58;;;;;;;11.23;6.80;;;17.70;99.90;;;-144.05;83.77;125687.94;5078338;28;20364;-85
2022/09/08 09:47:55;;;;;;;8.30;5.38;;;17.70;99.90;;;-144.05;82.37;125687.94;5074143;28;20040;-88
2022/09/08 09:50:41;;;;;;;;;;;17.70;99.90;;;-144.05;83.04;125687.94;5079236;28;20029;-89
2022/09/08 09:54:00;;;;;;;8.40;5.20;;;17.80;99.90;;;-144.05;82.75;125687.94;5080740;28;20232;-89
2022/09/08 09:57:40;;;;;;;8.57;4.05;;;17.90;99.90;;;-144.05;81.54;125687.94;5082111;28;20036;-88
2022/09/08 10:00:19;;;;;;;5.95;3.85;;;17.80;99.90;;;-144.05;82.22;125687.94;5080851;28;20044;-89
2022/09/08 10:03:05;;;;;;;7.25;4.00;;;17.70;99.90;;;-144.05;82.77;125687.94;5085740;28;20032;-88
2022/09/08 10:06:20;;;;;;;6.85;3.35;;;17.50;99.90;;;-144.05;82.71;125687.94;5083664;28;20020;-87
2022/09/08 10:09:10;;;;;;;9.07;3.35;;;17.50;99.90;;;-144.05;82.74;125687.94;5076840;28;20152;-88
2022/09/08 10:12:12;;;;;;;4.25;3.33;;;17.60;99.90;;;-144.05;82.98;125687.94;5075913;28;20404;-87
2022/09/08 10:15:42;;;;;;;4.20;2.63;;;17.80;99.90;;;-144.05;81.30;125687.94;5064535;28;20033;-89
2022/09/08 10:18:53;;;;;;;5.85;2.35;;;18.00;99.90;;;-144.05;79.47;125687.94;5041568;28;20088;-87
2022/09/08 10:22:15;;;;;;;4.45;2.85;;;18.30;99.90;;;-144.05;78.79;125687.94;5060373;28;20025;-88
2022/09/08 10:25:41;;;;;;;5.75;2.45;;;18.40;99.90;;;-144.05;77.51;125687.94;5058919;28;20029;-87
2022/09/08 10:29:14;;;;;;;3.63;2.13;;;18.80;99.90;;;-144.05;74.36;125687.94;5064343;28;20029;-86
2022/09/08 10:32:12;;;;;;;2.65;1.27;;;19.50;99.90;;;-144.05;70.74;125687.94;5033332;28;20068;-84
2022/09/08 10:35:30;;;;;;;2.28;1.13;;;20.40;99.90;;;-144.05;67.37;125687.94;5058997;28;20037;-88
2022/09/08 10:38:23;;;;;;;4.30;1.30;;;20.70;99.90;;;-144.05;66.55;125687.94;5068840;28;20052;-88
2022/09/08 10:40:55;;;;;;;3.90;1.10;;;20.50;99.90;;;-144.05;65.31;125687.94;5060785;28;20032;-88
2022/09/08 10:44:20;;;;;;;1.95;0.90;;;20.80;99.90;;;-144.05;62.12;125687.94;5061471;28;20036;-88
2022/09/08 10:47:14;;;;;;;1.45;0.70;;;20.90;99.90;;;-144.05;62.07;125687.94;5053764;28;20037;-88
2022/09/08 10:50:21;;;;;;;11.07;1.58;;;21.00;99.90;;;-144.05;61.28;125687.94;5059332;28;20487;-88
2022/09/08 10:53:29;;;;;;;4.55;1.10;;;20.90;99.90;;;-144.05;63.79;125687.94;5059314;28;20396;-91
2022/09/08 10:56:06;;;;;;;3.65;1.20;;;20.70;99.90;;;-144.05;62.16;125687.94;5060542;28;20075;-88
2022/09/08 10:59:37;;;;;;;1.98;1.00;;;20.70;99.90;;;-144.05;60.42;125687.94;5059725;28;20025;-88
2022/09/08 11:02:47;;;;;;;2.30;1.40;;;21.00;99.90;;;-144.05;58.34;125687.94;5055868;28;20060;-87
2022/09/08 11:05:47;;;;;;;4.35;1.42;;;22.10;99.90;;;-144.05;56.81;125687.94;5061033;28;20147;-87